createdAt,value
2019-02-18T00:00:43.448Z,93.40
2019-02-18T00:03:13.120Z,93.30
2019-02-18T00:05:42.407Z,93.50
2019-02-18T00:08:11.741Z,93.50
2019-02-18T00:10:41.034Z,93.40
2019-02-18T00:13:11.397Z,93.40
2019-02-18T00:15:41.953Z,93.50
2019-02-18T00:18:11.511Z,93.60
2019-02-18T00:20:40.801Z,93.40
2019-02-18T00:23:10.079Z,93.60
2019-02-18T00:25:39.356Z,93.70
2019-02-18T00:28:08.628Z,93.80
2019-02-18T00:30:38.233Z,93.80
2019-02-18T00:33:09.179Z,93.80
2019-02-18T00:35:38.785Z,93.90
2019-02-18T00:38:08.064Z,93.90
2019-02-18T00:40:37.337Z,93.80
2019-02-18T00:43:06.611Z,93.80
2019-02-18T00:45:35.907Z,94.00
2019-02-18T00:48:05.189Z,93.90
2019-02-18T00:50:34.496Z,93.80
2019-02-18T00:53:04.204Z,93.80
2019-02-18T00:55:34.483Z,94.00
2019-02-18T00:58:03.778Z,94.10
2019-02-18T01:00:33.356Z,94.40
2019-02-18T01:03:03.014Z,94.30
2019-02-18T01:05:32.395Z,94.30
2019-02-18T01:08:01.676Z,94.20
2019-02-18T01:10:31.299Z,94.40
2019-02-18T01:13:00.576Z,94.40
2019-02-18T01:15:29.862Z,94.60
2019-02-18T01:17:59.411Z,94.40
2019-02-18T01:20:28.688Z,94.30
2019-02-18T01:22:58.327Z,94.40
2019-02-18T01:25:27.598Z,94.40
2019-02-18T01:27:57.140Z,94.30
2019-02-18T01:30:26.423Z,94.50
2019-02-18T01:32:55.697Z,94.60
2019-02-18T01:35:24.994Z,94.70
2019-02-18T01:37:54.266Z,94.80
2019-02-18T01:40:23.551Z,94.60
2019-02-18T01:42:52.815Z,94.60
2019-02-18T01:45:22.096Z,94.50
2019-02-18T01:47:52.804Z,94.70
2019-02-18T01:50:22.084Z,95.20
2019-02-18T01:52:51.362Z,94.70
2019-02-18T01:55:20.690Z,94.60
2019-02-18T01:57:51.145Z,94.70
2019-02-18T02:00:20.424Z,94.70
2019-02-18T02:02:49.713Z,94.70
2019-02-18T02:05:18.988Z,95.10
2019-02-18T02:07:56.395Z,95.10
2019-02-18T02:10:20.468Z,95.40
2019-02-18T02:12:49.963Z,95.10
2019-02-18T02:15:22.612Z,95.00
2019-02-18T02:17:52.060Z,95.40
2019-02-18T02:20:21.634Z,95.10
2019-02-18T02:22:51.320Z,95.10
2019-02-18T02:25:20.968Z,95.20
2019-02-18T02:27:50.357Z,95.10
2019-02-18T02:30:19.973Z,95.20
2019-02-18T02:32:49.258Z,95.50
2019-02-18T02:35:18.899Z,95.50
2019-02-18T02:37:48.508Z,95.40
2019-02-18T02:40:17.796Z,95.60
2019-02-18T02:42:47.079Z,95.60
2019-02-18T02:45:16.356Z,95.50
2019-02-18T02:47:45.672Z,95.50
2019-02-18T02:50:14.961Z,95.40
2019-02-18T02:52:44.247Z,95.30
2019-02-18T02:55:13.839Z,95.50
2019-02-18T02:57:43.445Z,95.50
2019-02-18T03:00:17.394Z,95.50
2019-02-18T03:02:46.703Z,95.60
2019-02-18T03:05:15.972Z,95.80
2019-02-18T03:07:46.592Z,95.50
2019-02-18T03:10:16.208Z,95.40
2019-02-18T03:12:45.820Z,95.40
2019-02-18T03:15:18.704Z,95.30
2019-02-18T03:17:49.378Z,95.40
2019-02-18T03:20:18.655Z,95.30
2019-02-18T03:22:48.263Z,95.60
2019-02-18T03:25:22.263Z,95.70
2019-02-18T03:28:00.608Z,95.60
2019-02-18T03:30:38.701Z,95.60
2019-02-18T03:33:11.502Z,96.20
2019-02-18T03:35:41.079Z,95.80
2019-02-18T03:38:10.693Z,95.70
2019-02-18T03:40:40.008Z,95.70
2019-02-18T03:43:09.335Z,95.60
2019-02-18T03:45:38.639Z,95.60
2019-02-18T03:48:07.904Z,96.00
2019-02-18T03:50:39.264Z,95.90
2019-02-18T03:53:08.866Z,95.90
2019-02-18T03:55:38.149Z,95.80
2019-02-18T03:58:07.686Z,95.80
2019-02-18T04:00:39.088Z,95.90
2019-02-18T04:03:08.386Z,95.90
2019-02-18T04:05:37.730Z,95.80
2019-02-18T04:08:07.348Z,95.80
2019-02-18T04:10:36.633Z,95.80
2019-02-18T04:13:06.370Z,95.80
2019-02-18T04:15:37.013Z,95.80
2019-02-18T04:18:06.296Z,96.00
2019-02-18T04:20:35.921Z,96.00
2019-02-18T04:23:05.198Z,96.10
2019-02-18T04:25:34.833Z,96.00
2019-02-18T04:28:04.116Z,96.00
2019-02-18T04:30:33.395Z,96.00
2019-02-18T04:33:02.724Z,95.90
2019-02-18T04:35:32.003Z,96.00
2019-02-18T04:38:01.679Z,95.90
2019-02-18T04:40:31.274Z,95.80
2019-02-18T04:43:00.879Z,96.00
2019-02-18T04:45:30.169Z,96.10
2019-02-18T04:47:59.449Z,96.20
2019-02-18T04:50:29.747Z,96.30
2019-02-18T04:52:59.032Z,96.20
2019-02-18T04:55:28.636Z,96.20
2019-02-18T04:57:57.911Z,96.20
2019-02-18T05:00:27.446Z,96.30
2019-02-18T05:02:57.934Z,96.30
2019-02-18T05:05:27.484Z,96.30
2019-02-18T05:07:57.836Z,96.10
2019-02-18T05:10:27.426Z,96.20
2019-02-18T05:12:57.034Z,96.20
2019-02-18T05:15:26.650Z,96.20
2019-02-18T05:17:55.934Z,96.20
2019-02-18T05:20:25.211Z,96.40
2019-02-18T05:22:54.761Z,96.60
2019-02-18T05:25:24.379Z,96.60
2019-02-18T05:27:54.806Z,96.70
2019-02-18T05:30:24.427Z,96.90
2019-02-18T05:32:54.035Z,96.80
2019-02-18T05:35:23.330Z,96.70
2019-02-18T05:37:52.678Z,96.70
2019-02-18T05:40:22.314Z,96.70
2019-02-18T05:42:51.956Z,96.90
2019-02-18T05:45:22.213Z,96.90
2019-02-18T05:47:51.486Z,96.90
2019-02-18T05:50:20.780Z,97.00
2019-02-18T05:52:50.406Z,97.10
2019-02-18T05:55:19.687Z,97.10
2019-02-18T05:57:49.322Z,97.10
2019-02-18T06:00:18.607Z,97.20
2019-02-18T06:02:48.146Z,97.50
2019-02-18T06:05:18.304Z,97.40
2019-02-18T06:07:48.558Z,97.10
2019-02-18T06:10:17.896Z,96.90
2019-02-18T06:12:47.179Z,97.00
2019-02-18T06:15:16.799Z,97.00
2019-02-18T06:17:46.092Z,97.10
2019-02-18T06:20:15.381Z,97.00
2019-02-18T06:22:45.365Z,97.20
2019-02-18T06:25:14.652Z,97.30
2019-02-18T06:27:43.931Z,97.50
2019-02-18T06:30:13.217Z,97.20
2019-02-18T06:32:42.848Z,97.30
2019-02-18T06:35:12.461Z,97.20
2019-02-18T06:37:41.748Z,97.00
2019-02-18T06:40:12.125Z,96.90
2019-02-18T06:42:41.712Z,97.10
2019-02-18T06:45:29.535Z,97.10
2019-02-18T06:48:00.886Z,96.90
2019-02-18T06:50:30.184Z,96.70
2019-02-18T06:52:59.796Z,96.70
2019-02-18T06:55:29.089Z,96.70
2019-02-18T06:58:00.353Z,96.20
2019-02-18T07:00:37.215Z,96.50
2019-02-18T07:03:20.145Z,96.60
2019-02-18T07:06:10.376Z,96.70
2019-02-18T07:08:47.274Z,96.60
2019-02-18T07:11:19.392Z,96.50
2019-02-18T07:13:48.982Z,96.20
2019-02-18T07:16:18.272Z,95.90
2019-02-18T07:18:47.892Z,95.80
2019-02-18T07:21:17.508Z,95.70
2019-02-18T07:23:47.113Z,95.70
2019-02-18T07:26:16.401Z,95.70
2019-02-18T07:28:45.683Z,95.70
2019-02-18T07:31:15.005Z,95.60
2019-02-18T07:33:44.297Z,95.60
2019-02-18T07:36:13.841Z,95.40
2019-02-18T07:38:43.128Z,95.50
2019-02-18T07:41:12.436Z,96.10
2019-02-18T07:43:42.060Z,96.30
2019-02-18T07:46:11.352Z,96.00
2019-02-18T07:48:40.708Z,95.90
2019-02-18T07:51:09.997Z,95.90
2019-02-18T07:53:39.280Z,95.90
2019-02-18T07:56:08.884Z,95.80
2019-02-18T07:58:38.500Z,95.90
2019-02-18T08:01:07.775Z,95.90
2019-02-18T08:03:37.057Z,95.80
2019-02-18T08:06:07.152Z,95.70
2019-02-18T08:08:36.436Z,95.80
2019-02-18T08:11:05.768Z,96.30
2019-02-18T08:13:35.049Z,96.30
2019-02-18T08:16:04.350Z,96.30
2019-02-18T08:18:33.640Z,96.30
2019-02-18T08:21:02.925Z,95.80
2019-02-18T08:23:33.487Z,96.00
2019-02-18T08:26:02.768Z,95.60
2019-02-18T08:28:32.404Z,95.70
2019-02-18T08:31:02.008Z,95.40
2019-02-18T08:33:31.293Z,95.40
2019-02-18T08:36:00.653Z,95.50
2019-02-18T08:38:30.233Z,95.30
2019-02-18T08:41:00.343Z,95.30
2019-02-18T08:43:29.966Z,95.20
2019-02-18T08:45:59.574Z,95.70
2019-02-18T08:48:28.859Z,95.40
2019-02-18T08:50:58.176Z,94.90
2019-02-18T08:53:27.791Z,94.60
2019-02-18T08:55:57.073Z,94.30
2019-02-18T08:58:26.540Z,93.90
2019-02-18T09:01:02.243Z,93.30
2019-02-18T09:03:26.835Z,92.80
2019-02-18T09:05:56.113Z,92.40
2019-02-18T09:08:25.915Z,91.50
2019-02-18T09:10:55.484Z,90.70
2019-02-18T09:13:24.760Z,88.30
2019-02-18T09:15:59.985Z,85.60
2019-02-18T09:18:25.644Z,81.80
2019-02-18T09:20:55.603Z,80.70
2019-02-18T09:23:32.722Z,78.30
2019-02-18T09:26:02.443Z,79.10
2019-02-18T09:28:32.077Z,77.10
2019-02-18T09:31:01.360Z,76.90
2019-02-18T09:33:30.713Z,75.10
2019-02-18T09:35:59.996Z,73.60
2019-02-18T09:38:29.689Z,73.40
2019-02-18T09:40:58.971Z,70.50
2019-02-18T09:43:28.268Z,69.70
2019-02-18T09:45:57.551Z,69.60
2019-02-18T09:48:27.117Z,66.30
2019-02-18T09:50:56.403Z,65.30
2019-02-18T09:53:26.035Z,67.10
2019-02-18T09:55:55.645Z,63.50
2019-02-18T09:58:24.927Z,62.10
2019-02-18T10:00:54.562Z,62.30
2019-02-18T10:03:31.619Z,61.50
2019-02-18T10:05:55.187Z,59.70
2019-02-18T10:08:24.467Z,60.10
2019-02-18T10:10:56.136Z,61.20
2019-02-18T10:13:25.008Z,60.90
2019-02-18T10:15:54.287Z,60.10
2019-02-18T10:18:23.590Z,59.20
2019-02-18T10:20:52.939Z,56.20
2019-02-18T10:23:22.321Z,56.80
2019-02-18T10:25:51.692Z,56.70
2019-02-18T10:28:20.979Z,57.50
2019-02-18T10:30:50.921Z,57.40
2019-02-18T10:33:20.629Z,55.90
2019-02-18T10:35:49.943Z,55.30
2019-02-18T10:38:19.219Z,53.70
2019-02-18T10:40:48.512Z,52.10
2019-02-18T10:43:18.048Z,51.30
2019-02-18T10:45:48.685Z,53.60
2019-02-18T10:48:18.298Z,53.60
2019-02-18T10:50:47.581Z,52.20
2019-02-18T10:53:16.892Z,52.50
2019-02-18T10:55:46.256Z,52.80
2019-02-18T10:58:15.922Z,52.50
2019-02-18T11:00:45.531Z,51.40
2019-02-18T11:03:14.816Z,50.40
2019-02-18T11:05:44.584Z,50.40
2019-02-18T11:08:13.872Z,50.30
2019-02-18T11:10:44.429Z,50.20
2019-02-18T11:13:13.997Z,50.30
2019-02-18T11:15:43.607Z,50.70
2019-02-18T11:18:12.928Z,50.20
2019-02-18T11:20:42.207Z,51.10
2019-02-18T11:23:11.495Z,50.40
2019-02-18T11:25:40.855Z,48.60
2019-02-18T11:28:10.535Z,49.00
2019-02-18T11:30:39.961Z,50.80
2019-02-18T11:33:09.558Z,51.30
2019-02-18T11:35:38.848Z,50.90
2019-02-18T11:38:08.137Z,50.30
2019-02-18T11:40:37.701Z,50.70
2019-02-18T11:43:08.720Z,49.80
2019-02-18T11:45:38.000Z,47.20
2019-02-18T11:48:07.286Z,47.50
2019-02-18T11:50:36.656Z,44.90
2019-02-18T11:53:05.948Z,45.10
2019-02-18T11:55:35.238Z,46.20
2019-02-18T11:58:04.844Z,47.40
2019-02-18T12:00:34.560Z,46.80
2019-02-18T12:03:10.247Z,45.90
2019-02-18T12:05:35.112Z,47.10
2019-02-18T12:08:04.772Z,46.00
2019-02-18T12:10:34.065Z,45.80
2019-02-18T12:13:04.457Z,43.70
2019-02-18T12:15:34.067Z,43.10
2019-02-18T12:18:03.677Z,44.30
2019-02-18T12:20:32.965Z,44.70
2019-02-18T12:23:03.968Z,44.20
2019-02-18T12:25:34.222Z,42.60
2019-02-18T12:28:03.515Z,43.50
2019-02-18T12:30:33.178Z,42.40
2019-02-18T12:33:02.778Z,42.80
2019-02-18T12:35:34.089Z,41.60
2019-02-18T12:38:03.333Z,43.50
2019-02-18T12:40:32.624Z,43.20
2019-02-18T12:43:01.908Z,42.70
2019-02-18T12:45:31.452Z,42.00
2019-02-18T12:48:00.823Z,42.80
2019-02-18T12:50:30.463Z,43.80
2019-02-18T12:52:59.933Z,44.20
2019-02-18T12:55:29.447Z,43.10
2019-02-18T12:57:59.056Z,42.20
2019-02-18T13:00:29.217Z,41.60
2019-02-18T13:02:58.573Z,41.70
2019-02-18T13:05:27.938Z,40.30
2019-02-18T13:07:57.345Z,40.20
2019-02-18T13:10:34.711Z,38.90
2019-02-18T13:12:57.904Z,38.40
2019-02-18T13:15:29.235Z,38.60
2019-02-18T13:17:58.591Z,39.70
2019-02-18T13:20:28.151Z,37.20
2019-02-18T13:22:57.864Z,36.00
2019-02-18T13:25:27.788Z,35.20
2019-02-18T13:27:57.073Z,34.90
2019-02-18T13:30:26.712Z,35.80
2019-02-18T13:32:56.417Z,35.40
2019-02-18T13:35:25.697Z,37.00
2019-02-18T13:37:54.984Z,34.90
2019-02-18T13:40:25.040Z,36.10
2019-02-18T13:42:54.324Z,36.90
2019-02-18T13:45:24.299Z,37.40
2019-02-18T13:47:53.880Z,38.20
2019-02-18T13:50:23.484Z,37.80
2019-02-18T13:52:52.766Z,36.00
2019-02-18T13:55:22.438Z,36.10
2019-02-18T13:57:51.725Z,35.70
2019-02-18T14:00:22.440Z,36.50
2019-02-18T14:02:52.051Z,37.70
2019-02-18T14:05:22.006Z,38.20
2019-02-18T14:07:51.592Z,38.50
2019-02-18T14:10:21.532Z,38.60
2019-02-18T14:12:50.896Z,39.70
2019-02-18T14:15:21.551Z,38.40
2019-02-18T14:17:51.187Z,38.20
2019-02-18T14:20:20.760Z,36.80
2019-02-18T14:22:50.050Z,35.80
2019-02-18T14:25:19.483Z,35.80
2019-02-18T14:27:48.794Z,34.50
2019-02-18T14:30:18.724Z,34.10
2019-02-18T14:32:48.014Z,32.60
2019-02-18T14:35:17.978Z,31.40
2019-02-18T14:37:48.146Z,31.50
2019-02-18T14:40:19.096Z,31.80
2019-02-18T14:42:48.698Z,31.40
2019-02-18T14:45:17.983Z,31.70
2019-02-18T14:47:47.268Z,31.60
2019-02-18T14:50:18.426Z,29.90
2019-02-18T14:52:48.155Z,30.20
2019-02-18T14:55:17.443Z,31.20
2019-02-18T14:57:47.080Z,31.40
2019-02-18T15:00:22.509Z,31.20
2019-02-18T15:02:54.861Z,31.60
2019-02-18T15:05:26.587Z,31.30
2019-02-18T15:07:57.937Z,31.00
2019-02-18T15:10:27.224Z,30.80
2019-02-18T15:12:56.829Z,31.50
2019-02-18T15:15:26.252Z,30.90
2019-02-18T15:17:56.145Z,31.20
2019-02-18T15:20:25.764Z,30.80
2019-02-18T15:22:55.371Z,32.60
2019-02-18T15:25:24.976Z,34.00
2019-02-18T15:27:54.805Z,32.20
2019-02-18T15:30:24.264Z,32.80
2019-02-18T15:32:53.643Z,33.90
2019-02-18T15:35:22.995Z,32.90
2019-02-18T15:37:52.625Z,35.80
2019-02-18T15:40:22.235Z,40.20
2019-02-18T15:42:51.515Z,43.60
2019-02-18T15:45:21.046Z,46.20
2019-02-18T15:47:51.000Z,48.30
2019-02-18T15:50:20.284Z,51.40
2019-02-18T15:52:49.885Z,52.60
2019-02-18T15:55:19.494Z,53.40
2019-02-18T15:57:48.776Z,53.40
2019-02-18T16:00:25.907Z,52.80
2019-02-18T16:02:55.493Z,49.90
2019-02-18T16:05:24.775Z,46.40
2019-02-18T16:07:54.059Z,44.90
2019-02-18T16:10:23.603Z,44.20
2019-02-18T16:12:52.915Z,43.90
2019-02-18T16:15:22.224Z,44.00
2019-02-18T16:17:51.577Z,45.00
2019-02-18T16:20:22.258Z,47.90
2019-02-18T16:22:51.547Z,50.40
2019-02-18T16:25:24.044Z,53.20
2019-02-18T16:27:53.403Z,54.90
2019-02-18T16:30:22.967Z,55.60
2019-02-18T16:32:52.575Z,55.90
2019-02-18T16:35:22.172Z,56.40
2019-02-18T16:37:51.788Z,58.20
2019-02-18T16:40:21.804Z,59.10
2019-02-18T16:42:59.143Z,61.30
2019-02-18T16:45:23.895Z,61.10
2019-02-18T16:47:53.197Z,61.60
2019-02-18T16:50:22.471Z,61.60
2019-02-18T16:52:51.899Z,62.20
2019-02-18T16:55:21.516Z,63.20
2019-02-18T16:57:51.438Z,62.80
2019-02-18T17:00:25.287Z,62.10
2019-02-18T17:02:56.013Z,62.90
2019-02-18T17:05:25.297Z,63.20
2019-02-18T17:07:54.575Z,63.40
2019-02-18T17:10:23.860Z,63.90
2019-02-18T17:12:53.499Z,64.50
2019-02-18T17:15:22.849Z,65.00
2019-02-18T17:17:52.138Z,65.10
2019-02-18T17:20:21.411Z,65.50
2019-02-18T17:22:51.028Z,65.30
2019-02-18T17:25:20.422Z,65.80
2019-02-18T17:27:49.978Z,66.80
2019-02-18T17:30:19.364Z,67.30
2019-02-18T17:32:48.660Z,68.90
2019-02-18T17:35:17.943Z,68.50
2019-02-18T17:37:47.219Z,68.00
2019-02-18T17:40:16.500Z,67.50
2019-02-18T17:42:46.055Z,67.20
2019-02-18T17:45:17.176Z,66.20
2019-02-18T17:47:46.732Z,66.50
2019-02-18T17:50:16.835Z,65.50
2019-02-18T17:52:46.888Z,65.00
2019-02-18T17:55:17.205Z,65.00
2019-02-18T17:57:47.633Z,65.50
2019-02-18T18:00:29.108Z,66.10
2019-02-18T18:02:58.408Z,67.00
2019-02-18T18:05:28.023Z,67.50
2019-02-18T18:07:58.565Z,67.90
2019-02-18T18:10:28.165Z,67.90
2019-02-18T18:12:57.795Z,68.50
2019-02-18T18:15:27.494Z,68.20
2019-02-18T18:17:56.768Z,68.60
2019-02-18T18:20:27.281Z,68.10
2019-02-18T18:22:57.354Z,67.80
2019-02-18T18:25:26.964Z,67.60
2019-02-18T18:27:56.578Z,68.90
2019-02-18T18:30:25.930Z,68.20
2019-02-18T18:32:55.205Z,68.00
2019-02-18T18:35:25.853Z,69.00
2019-02-18T18:37:55.501Z,69.80
2019-02-18T18:40:24.775Z,71.00
2019-02-18T18:42:54.083Z,72.60
2019-02-18T18:45:23.648Z,73.50
2019-02-18T18:47:53.080Z,74.30
2019-02-18T18:50:23.097Z,75.20
2019-02-18T18:52:52.377Z,75.70
2019-02-18T18:55:22.425Z,76.40
2019-02-18T18:57:52.014Z,76.70
2019-02-18T19:00:26.039Z,78.00
2019-02-18T19:02:55.315Z,77.80
2019-02-18T19:05:24.604Z,78.20
2019-02-18T19:07:53.884Z,78.70
2019-02-18T19:10:23.160Z,79.20
2019-02-18T19:12:54.103Z,80.00
2019-02-18T19:15:23.391Z,80.70
2019-02-18T19:17:52.671Z,80.90
2019-02-18T19:20:22.294Z,81.20
2019-02-18T19:22:53.646Z,81.40
2019-02-18T19:25:23.018Z,81.50
2019-02-18T19:27:52.561Z,83.10
2019-02-18T19:30:28.002Z,82.50
2019-02-18T19:32:58.255Z,82.90
2019-02-18T19:35:27.540Z,83.60
2019-02-18T19:37:56.823Z,84.40
2019-02-18T19:40:26.449Z,85.00
2019-02-18T19:42:55.730Z,84.40
2019-02-18T19:45:25.569Z,84.80
2019-02-18T19:47:55.189Z,85.30
2019-02-18T19:50:24.456Z,85.50
2019-02-18T19:52:53.988Z,86.80
2019-02-18T19:55:25.393Z,85.60
2019-02-18T19:57:54.848Z,84.50
2019-02-18T20:00:24.124Z,84.10
2019-02-18T20:02:53.547Z,83.10
2019-02-18T20:05:22.830Z,82.00
2019-02-18T20:07:52.103Z,81.40
2019-02-18T20:10:21.384Z,81.00
2019-02-18T20:12:51.387Z,81.90
2019-02-18T20:15:20.687Z,82.60
2019-02-18T20:17:50.316Z,83.40
2019-02-18T20:20:19.587Z,83.10
2019-02-18T20:22:48.867Z,82.70
2019-02-18T20:25:19.036Z,82.80
2019-02-18T20:27:49.904Z,82.60
2019-02-18T20:30:19.183Z,83.10
2019-02-18T20:32:48.790Z,84.50
2019-02-18T20:35:19.104Z,85.20
2019-02-18T20:37:48.379Z,86.30
2019-02-18T20:40:17.659Z,87.70
2019-02-18T20:42:47.912Z,87.80
2019-02-18T20:45:17.193Z,87.90
2019-02-18T20:47:47.099Z,88.40
2019-02-18T20:50:16.385Z,89.40
2019-02-18T20:52:45.708Z,89.40
2019-02-18T20:55:15.737Z,89.40
2019-02-18T20:57:45.012Z,89.70
2019-02-18T21:00:17.103Z,89.80
2019-02-18T21:02:46.559Z,90.20
2019-02-18T21:05:16.324Z,90.70
2019-02-18T21:07:45.795Z,90.50
2019-02-18T21:10:21.673Z,90.30
2019-02-18T21:12:50.954Z,90.20
2019-02-18T21:15:20.232Z,90.20
2019-02-18T21:17:49.511Z,90.60
2019-02-18T21:20:18.792Z,90.40
2019-02-18T21:22:49.436Z,90.20
2019-02-18T21:25:19.013Z,90.30
2019-02-18T21:27:48.627Z,90.10
2019-02-18T21:30:19.359Z,89.20
2019-02-18T21:32:48.642Z,89.20
2019-02-18T21:35:18.282Z,88.10
2019-02-18T21:37:47.641Z,87.70
2019-02-18T21:40:17.192Z,87.90
2019-02-18T21:42:46.795Z,88.80
2019-02-18T21:45:16.517Z,88.90
2019-02-18T21:47:46.229Z,88.90
2019-02-18T21:50:15.840Z,88.10
2019-02-18T21:52:45.216Z,87.70
2019-02-18T21:55:14.498Z,87.10
2019-02-18T21:57:44.168Z,87.70
2019-02-18T22:00:17.520Z,88.00
2019-02-18T22:02:47.243Z,88.30
2019-02-18T22:05:17.194Z,88.60
2019-02-18T22:07:46.472Z,88.70
2019-02-18T22:10:15.787Z,89.20
2019-02-18T22:12:45.076Z,88.70
2019-02-18T22:15:15.667Z,89.60
2019-02-18T22:17:45.589Z,89.50
2019-02-18T22:20:15.346Z,89.60
2019-02-18T22:22:44.633Z,89.70
2019-02-18T22:25:14.124Z,90.20
2019-02-18T22:27:44.647Z,90.20
2019-02-18T22:30:17.030Z,90.40
2019-02-18T22:32:46.597Z,90.40
2019-02-18T22:35:16.348Z,90.40
2019-02-18T22:37:45.628Z,90.20
2019-02-18T22:40:14.908Z,90.10
2019-02-18T22:42:44.529Z,90.40
2019-02-18T22:45:14.284Z,90.40
2019-02-18T22:47:43.956Z,90.60
2019-02-18T22:50:13.803Z,90.80
2019-02-18T22:52:43.089Z,90.90
2019-02-18T22:55:12.753Z,90.70
2019-02-18T22:57:42.303Z,91.20
2019-02-18T23:00:39.575Z,91.30
2019-02-18T23:03:08.923Z,91.50
2019-02-18T23:05:38.210Z,91.80
2019-02-18T23:08:07.752Z,92.50
2019-02-18T23:10:37.028Z,91.90
2019-02-18T23:13:07.219Z,91.00
2019-02-18T23:15:36.977Z,91.10
2019-02-18T23:18:06.255Z,91.50
2019-02-18T23:20:35.540Z,91.90
2019-02-18T23:23:04.824Z,92.00
2019-02-18T23:25:34.428Z,92.00
2019-02-18T23:28:05.089Z,91.80
2019-02-18T23:30:34.647Z,92.80
2019-02-18T23:33:04.272Z,93.20
2019-02-18T23:35:34.008Z,93.40
2019-02-18T23:38:04.345Z,93.60
2019-02-18T23:40:33.619Z,93.40
2019-02-18T23:43:02.900Z,93.50
2019-02-18T23:45:32.540Z,93.30
2019-02-18T23:48:02.155Z,93.50
2019-02-18T23:50:31.440Z,93.50
2019-02-18T23:53:00.720Z,93.60
2019-02-18T23:55:30.024Z,93.80
2019-02-18T23:57:59.300Z,93.80
